^^
Grace C. Lehan Memorial Weather Station Historical Data
Daily Summary for August 8, 2021 Units:  English    Metric   Both
Daily Weekly Monthly Yearly
  High: Low: Average:
Temperature: 81.6 °F 71.9 °F 75.4 °F
Dew Point: 69.5 °F 65.1 °F 67.2 °F
Humidity: 88% 61.6% 76%
Wind Speed: 3mph 0mph 0.1mph
Wind Gust: 9mph - -
Wind- - West
Pressure: 30.08 in 29.98 in -
Precipitation: 0.00 in    
 
 
Tabular Data for August 8, 2021
Time Temperature Dew Point Pressure Wind Wind Speed Wind Gust Humidity Rainfall Rate (Hourly) solar
00:04 74.2 °F 65.4 °F 30.00 in Calm     74% 0.00 in 0 W/m2
00:09 74.2 °F 65.4 °F 30.00 in Calm     74% 0.00 in 0 W/m2
00:14 74.1 °F 65.3 °F 30.00 in Calm     74% 0.00 in 0 W/m2
00:19 74 °F 65.2 °F 30.00 in Calm     74% 0.00 in 0 W/m2
00:24 73.9 °F 65.1 °F 30.00 in Calm     74% 0.00 in 0 W/m2
00:29 73.8 °F 65.4 °F 29.99 in Calm     74.9% 0.00 in 0 W/m2
00:34 73.7 °F 65.3 °F 29.99 in Calm     75% 0.00 in 0 W/m2
00:39 73.6 °F 65.4 °F 29.99 in Calm     75.5% 0.00 in 0 W/m2
00:44 73.5 °F 65.5 °F 29.99 in Calm     76% 0.00 in 0 W/m2
00:49 73.5 °F 65.5 °F 29.99 in Calm     76.1% 0.00 in 0 W/m2
00:54 73.4 °F 65.8 °F 29.99 in Calm     77% 0.00 in 0 W/m2
00:59 73.4 °F 65.8 °F 29.99 in Calm     77.1% 0.00 in 0 W/m2
01:04 73.4 °F 66.1 °F 29.99 in Calm     78% 0.00 in 0 W/m2
01:09 73.4 °F 66.1 °F 29.99 in Calm     78% 0.00 in 0 W/m2
01:14 73.4 °F 66.1 °F 29.99 in Calm     78% 0.00 in 0 W/m2
01:19 73.4 °F 66.1 °F 29.99 in Calm     78% 0.00 in 0 W/m2
01:24 73.4 °F 66.3 °F 29.99 in Calm     78.3% 0.00 in 0 W/m2
01:29 73.4 °F 66.5 °F 29.99 in Calm     79% 0.00 in 0 W/m2
01:34 73.4 °F 66.5 °F 29.99 in Calm     79% 0.00 in 0 W/m2
01:39 73.3 °F 66.4 °F 29.99 in Calm     79% 0.00 in 0 W/m2
01:44 73.3 °F 66.7 °F 29.99 in Calm     79.9% 0.00 in 0 W/m2
01:49 73.2 °F 66.7 °F 29.99 in Calm     80% 0.00 in 0 W/m2
01:54 73.2 °F 66.7 °F 29.99 in Calm     80% 0.00 in 0 W/m2
01:59 73.1 °F 66.6 °F 29.98 in Calm     80.1% 0.00 in 0 W/m2
02:04 73.1 °F 66.8 °F 29.98 in Calm     80.6% 0.00 in 0 W/m2
02:09 73 °F 66.8 °F 29.98 in Calm     81% 0.00 in 0 W/m2
02:14 72.9 °F 67 °F 29.98 in Calm     81.6% 0.00 in 0 W/m2
02:19 72.9 °F 67 °F 29.98 in Calm     81.8% 0.00 in 0 W/m2
02:24 72.8 °F 67 °F 29.98 in Calm     82% 0.00 in 0 W/m2
02:29 72.8 °F 67 °F 29.99 in Calm     82% 0.00 in 0 W/m2
02:34 72.8 °F 67 °F 29.99 in Calm     82% 0.00 in 0 W/m2
02:39 72.7 °F 66.9 °F 29.99 in Calm     82% 0.00 in 0 W/m2
02:44 72.6 °F 66.8 °F 29.99 in Calm     82% 0.00 in 0 W/m2
02:49 72.6 °F 66.8 °F 29.99 in Calm     82% 0.00 in 0 W/m2
02:54 72.5 °F 67 °F 29.99 in Calm     82.9% 0.00 in 0 W/m2
02:59 72.5 °F 67 °F 29.99 in Calm     83% 0.00 in 0 W/m2
03:04 72.4 °F 66.9 °F 29.99 in Calm     83% 0.00 in 0 W/m2
03:09 72.3 °F 66.9 °F 29.99 in Calm     83% 0.00 in 0 W/m2
03:14 72.2 °F 67.1 °F 29.99 in Calm     84% 0.00 in 0 W/m2
03:19 72.2 °F 67.1 °F 29.99 in Calm     84% 0.00 in 0 W/m2
03:24 72.2 °F 67.1 °F 29.99 in Calm     84% 0.00 in 0 W/m2
03:29 72.1 °F 67 °F 29.99 in Calm     84% 0.00 in 0 W/m2
03:34 72.1 °F 67 °F 29.99 in Calm     84% 0.00 in 0 W/m2
03:39 72.1 °F 67 °F 29.99 in Calm     84.1% 0.00 in 0 W/m2
03:44 72 °F 67.3 °F 29.99 in Calm     85% 0.00 in 0 W/m2
03:49 72 °F 67.3 °F 30.00 in Calm     85% 0.00 in 0 W/m2
03:54 72 °F 67.3 °F 30.00 in Calm     85% 0.00 in 0 W/m2
03:59 72.1 °F 67.3 °F 30.00 in Calm     85% 0.00 in 0 W/m2
04:09 72.1 °F 67.3 °F 30.00 in Calm     85% 0.00 in 0 W/m2
04:14 72.1 °F 67.4 °F 30.00 in Calm     85.1% 0.00 in 0 W/m2
04:19 72.1 °F 67.7 °F 30.00 in Calm     86% 0.00 in 0 W/m2
04:24 72.1 °F 67.7 °F 30.00 in Calm     86% 0.00 in 0 W/m2
04:29 72.1 °F 67.7 °F 30.01 in Calm     86% 0.00 in 0 W/m2
04:34 72.1 °F 67.7 °F 30.01 in Calm     86% 0.00 in 0 W/m2
04:39 72.1 °F 67.7 °F 30.01 in Calm     86% 0.00 in 0 W/m2
04:44 72.1 °F 67.7 °F 30.01 in Calm     86% 0.00 in 0 W/m2
04:49 72.1 °F 67.7 °F 30.01 in Calm     86% 0.00 in 0 W/m2
04:54 72 °F 67.6 °F 30.01 in Calm     86% 0.00 in 0 W/m2
04:59 72 °F 67.9 °F 30.01 in Calm     86.9% 0.00 in 0 W/m2
05:04 72 °F 67.9 °F 30.01 in Calm     87% 0.00 in 0 W/m2
05:09 72 °F 67.9 °F 30.01 in Calm     87% 0.00 in 0 W/m2
05:14 72 °F 67.9 °F 30.01 in Calm     87% 0.00 in 0 W/m2
05:19 71.9 °F 67.8 °F 30.01 in Calm     87% 0.00 in 0 W/m2
05:24 72 °F 68.2 °F 30.01 in Calm   1 mph 87.8% 0.00 in 0 W/m2
05:29 72 °F 68.3 °F 30.01 in Calm   1 mph 88% 0.00 in 0 W/m2
05:34 72.1 °F 68.1 °F 30.00 in WSW 0.1 mph 3 mph 87.4% 0.00 in 0 W/m2
05:39 72.1 °F 68.1 °F 30.01 in Calm   3 mph 87% 0.00 in 0 W/m2
05:44 72.2 °F 68.1 °F 30.01 in Calm   3 mph 87% 0.00 in 0 W/m2
05:49 72.3 °F 68.2 °F 30.01 in Calm   3 mph 87% 0.00 in 0 W/m2
05:54 72.3 °F 68.2 °F 30.01 in Calm   3 mph 87% 0.00 in 0 W/m2
05:59 72.4 °F 68.3 °F 30.01 in Calm   3 mph 87% 0.00 in 0 W/m2
06:04 72.4 °F 68.3 °F 30.01 in Calm   3 mph 87% 0.00 in 0 W/m2
06:09 72.4 °F 68.3 °F 30.01 in Calm     87% 0.00 in 0 W/m2
06:14 72.4 °F 68.3 °F 30.01 in Calm     87% 0.00 in 0 W/m2
06:19 72.5 °F 68.4 °F 30.01 in Calm     87% 0.00 in 5 W/m2
06:24 72.5 °F 68.4 °F 30.02 in Calm     87% 0.00 in 9 W/m2
06:29 72.4 °F 68.2 °F 30.02 in Calm     86.6% 0.00 in 11 W/m2
06:34 72.4 °F 67.9 °F 30.02 in Calm     86% 0.00 in 11 W/m2
06:39 72.3 °F 67.9 °F 30.02 in Calm     86% 0.00 in 12 W/m2
06:44 72.3 °F 67.9 °F 30.02 in Calm     86% 0.00 in 16 W/m2
06:49 72.3 °F 67.8 °F 30.02 in Calm     86% 0.00 in 18 W/m2
06:54 72.2 °F 67.8 °F 30.02 in Calm     86% 0.00 in 19 W/m2
06:59 72.2 °F 67.8 °F 30.02 in WSW 0.2 mph 3 mph 86% 0.00 in 19 W/m2
07:04 72.2 °F 67.7 °F 30.02 in Calm   3 mph 85.7% 0.00 in 21 W/m2
07:09 72.1 °F 67.3 °F 30.02 in Calm     85% 0.00 in 23 W/m2
07:14 72.1 °F 67 °F 30.02 in Calm     84.1% 0.00 in 33 W/m2
07:19 72.1 °F 66.9 °F 30.02 in Calm   1 mph 83.8% 0.00 in 44 W/m2
07:24 72.1 °F 66.7 °F 30.02 in Calm   1 mph 83% 0.00 in 49 W/m2
07:29 72.2 °F 66.7 °F 30.02 in Calm   1 mph 83% 0.00 in 51 W/m2
07:34 72.3 °F 66.8 °F 30.02 in Calm   1 mph 83% 0.00 in 58 W/m2
07:39 72.4 °F 66.9 °F 30.03 in Calm     83% 0.00 in 76 W/m2
07:40 72.4 °F 67 °F 30.03 in Calm     83% 0.00 in 76 W/m2
08:04 73.1 °F 66.6 °F 30.03 in Calm     80% 0.00 in 84 W/m2
08:09 73.2 °F 66.6 °F 30.03 in Calm     79.8% 0.00 in 84 W/m2
08:14 73.2 °F 66.5 °F 30.03 in Calm     79.5% 0.00 in 83 W/m2
08:19 73.3 °F 66.4 °F 30.03 in Calm     79% 0.00 in 84 W/m2
08:24 73.3 °F 66.5 °F 30.03 in Calm     79.4% 0.00 in 84 W/m2
08:29 73.4 °F 66.6 °F 30.03 in Calm     79.3% 0.00 in 81 W/m2
08:34 73.4 °F 66 °F 30.03 in Calm     77.8% 0.00 in 72 W/m2
08:39 73.4 °F 66.1 °F 30.04 in Calm     78% 0.00 in 83 W/m2
08:44 73.5 °F 66.5 °F 30.04 in Calm     78.7% 0.00 in 90 W/m2
08:49 73.6 °F 66.9 °F 30.04 in Calm     79.6% 0.00 in 95 W/m2
08:54 73.7 °F 66.9 °F 30.04 in Calm     79.3% 0.00 in 100 W/m2
08:59 73.8 °F 67 °F 30.04 in Calm   1 mph 79.2% 0.00 in 104 W/m2
09:04 73.8 °F 66.8 °F 30.04 in Calm   1 mph 78.7% 0.00 in 111 W/m2
09:09 73.9 °F 66.4 °F 30.04 in Calm   2 mph 77.4% 0.00 in 134 W/m2
09:14 73.9 °F 66.2 °F 30.04 in WSW 0.8 mph 5 mph 76.8% 0.00 in 134 W/m2
09:19 74 °F 66.4 °F 30.05 in Calm   5 mph 77.3% 0.00 in 127 W/m2
09:24 74.1 °F 66.7 °F 30.04 in WSW 0.3 mph 5 mph 77.5% 0.00 in 151 W/m2
09:29 74.3 °F 66.6 °F 30.05 in Calm   5 mph 77.1% 0.00 in 197 W/m2
09:34 74.5 °F 67 °F 30.05 in WSW 0.7 mph 5 mph 77.5% 0.00 in 236 W/m2
09:39 74.7 °F 66.4 °F 30.05 in West 1.7 mph 7 mph 75.5% 0.00 in 223 W/m2
09:44 74.7 °F 66.2 °F 30.05 in West 0.6 mph 7 mph 74.7% 0.00 in 369 W/m2
09:49 74.9 °F 66.6 °F 30.05 in West 0.9 mph 7 mph 75.4% 0.00 in 557 W/m2
09:54 75.6 °F 67.4 °F 30.05 in West 1.2 mph 7 mph 75.6% 0.00 in 810 W/m2
09:59 76.6 °F 67.2 °F 30.05 in WNW 3 mph 7 mph 72.6% 0.00 in 350 W/m2
10:04 77.1 °F 66.6 °F 30.05 in WNW 1.8 mph 9 mph 70.2% 0.00 in 297 W/m2
10:09 77.1 °F 66.4 °F 30.05 in WNW 0.2 mph 9 mph 69.6% 0.00 in 251 W/m2
10:14 77.2 °F 66.7 °F 30.05 in WNW 0.2 mph 9 mph 70.2% 0.00 in 213 W/m2
10:19 77.2 °F 67.1 °F 30.05 in WNW 0.7 mph 9 mph 70.9% 0.00 in 383 W/m2
10:24 77.5 °F 67.7 °F 30.05 in WNW 0.3 mph 9 mph 71.9% 0.00 in 476 W/m2
10:29 77.9 °F 67.5 °F 30.05 in WNW 0.3 mph 9 mph 70.5% 0.00 in 476 W/m2
10:34 78.2 °F 67 °F 30.05 in Calm   9 mph 68.6% 0.00 in 276 W/m2
10:39 78.4 °F 66.9 °F 30.04 in Calm     67.9% 0.00 in 236 W/m2
11:00 78.3 °F 67.7 °F 30.05 in Calm     70% 0.00 in 170 W/m2
11:30 77.4 °F 67.3 °F 30.06 in Calm     71% 0.00 in 94 W/m2
12:04 77.3 °F 68 °F 30.06 in Calm     73% 0.00 in 76 W/m2
12:09 77.2 °F 67.4 °F 30.06 in Calm     71.8% 0.00 in 83 W/m2
12:14 77.1 °F 67 °F 30.07 in Calm     71% 0.00 in 93 W/m2
12:19 77.1 °F 67.3 °F 30.07 in Calm     71.8% 0.00 in 95 W/m2
12:24 77 °F 67.1 °F 30.07 in Calm     71.4% 0.00 in 102 W/m2
12:29 77.1 °F 67.7 °F 30.07 in Calm     72.8% 0.00 in 111 W/m2
12:34 77 °F 67.4 °F 30.07 in Calm     72.2% 0.00 in 113 W/m2
12:39 77.1 °F 67.7 °F 30.07 in Calm     72.8% 0.00 in 123 W/m2
12:44 77 °F 67 °F 30.07 in Calm     71.3% 0.00 in 190 W/m2
12:49 77 °F 67.1 °F 30.07 in Calm     71.5% 0.00 in 221 W/m2
12:54 77.2 °F 68.5 °F 30.07 in Calm     74.5% 0.00 in 239 W/m2
12:59 77.4 °F 68.2 °F 30.07 in Calm     73.3% 0.00 in 244 W/m2
13:04 77.6 °F 67.6 °F 30.07 in Calm     71.4% 0.00 in 253 W/m2
13:09 77.6 °F 67.2 °F 30.07 in Calm     70.4% 0.00 in 290 W/m2
13:14 77.8 °F 67.8 °F 30.07 in Calm     71.2% 0.00 in 390 W/m2
13:19 78.1 °F 68.1 °F 30.07 in Calm     71.4% 0.00 in 475 W/m2
13:24 78.4 °F 68.9 °F 30.06 in Calm     72.6% 0.00 in 501 W/m2
13:29 78.6 °F 69.5 °F 30.06 in Calm     73.7% 0.00 in 387 W/m2
13:34 78.7 °F 69.1 °F 30.06 in Calm     72.4% 0.00 in 323 W/m2
13:39 78.8 °F 68.7 °F 30.06 in Calm   1 mph 71.3% 0.00 in 327 W/m2
13:44 78.9 °F 68.7 °F 30.06 in Calm   1 mph 71.1% 0.00 in 299 W/m2
13:49 78.9 °F 68.8 °F 30.06 in Calm   1 mph 71.2% 0.00 in 274 W/m2
13:54 79 °F 69 °F 30.06 in Calm   1 mph 71.5% 0.00 in 234 W/m2
13:59 79.1 °F 69 °F 30.06 in Calm   1 mph 71.3% 0.00 in 246 W/m2
14:04 79 °F 68.3 °F 30.06 in Calm   1 mph 69.8% 0.00 in 264 W/m2
14:09 79 °F 68 °F 30.06 in Calm     69% 0.00 in 271 W/m2
14:14 79.2 °F 67.9 °F 30.06 in Calm     68.4% 0.00 in 257 W/m2
14:19 79.3 °F 67.1 °F 30.06 in Calm     66.3% 0.00 in 274 W/m2
14:24 79.4 °F 66.6 °F 30.06 in Calm     65% 0.00 in 292 W/m2
14:29 79.5 °F 66.9 °F 30.06 in Calm     65.5% 0.00 in 343 W/m2
14:34 79.7 °F 66.8 °F 30.05 in Calm     64.7% 0.00 in 350 W/m2
14:39 80 °F 67.4 °F 30.05 in Calm     65.4% 0.00 in 411 W/m2
14:44 80.3 °F 67.2 °F 30.05 in Calm   1 mph 64.3% 0.00 in 763 W/m2
14:49 80.7 °F 66.7 °F 30.06 in WNW 0.2 mph 2 mph 62.6% 0.00 in 763 W/m2
14:54 81 °F 67.2 °F 30.06 in Calm   2 mph 63% 0.00 in 422 W/m2
14:59 81.1 °F 67.4 °F 30.06 in Calm   2 mph 63.3% 0.00 in 396 W/m2
15:04 81.1 °F 67.6 °F 30.06 in Calm   2 mph 63.6% 0.00 in 345 W/m2
15:09 81.1 °F 68.1 °F 30.06 in WNW 0.1 mph 3 mph 64.6% 0.00 in 552 W/m2
15:14 81.3 °F 68.1 °F 30.06 in Calm   3 mph 64.3% 0.00 in 554 W/m2
15:19 81.5 °F 67.6 °F 30.06 in Calm   3 mph 62.8% 0.00 in 455 W/m2
15:24 81.6 °F 67.2 °F 30.06 in Calm   3 mph 61.6% 0.00 in 229 W/m2
15:29 81.5 °F 68 °F 30.06 in Calm   3 mph 63.7% 0.00 in 171 W/m2
15:34 81.4 °F 68.2 °F 30.06 in Calm   3 mph 64.3% 0.00 in 139 W/m2
15:39 81.1 °F 67.7 °F 30.06 in Calm     63.8% 0.00 in 134 W/m2
15:44 80.7 °F 67.1 °F 30.05 in Calm     63.3% 0.00 in 148 W/m2
15:49 80.3 °F 67 °F 30.05 in Calm     63.9% 0.00 in 179 W/m2
15:54 80 °F 67 °F 30.05 in Calm     64.7% 0.00 in 199 W/m2
15:59 79.8 °F 67.2 °F 30.05 in Calm     65.5% 0.00 in 197 W/m2
16:04 79.4 °F 67.1 °F 30.05 in Calm     66% 0.00 in 114 W/m2
16:09 79.3 °F 67.2 °F 30.05 in Calm     66.7% 0.00 in 114 W/m2
16:14 79 °F 67 °F 30.05 in Calm     66.6% 0.00 in 86 W/m2
16:19 78.9 °F 66.3 °F 30.05 in Calm     65.4% 0.00 in 102 W/m2
16:24 78.7 °F 66.4 °F 30.05 in Calm     65.9% 0.00 in 113 W/m2
16:29 78.7 °F 66.8 °F 30.05 in Calm     66.9% 0.00 in 127 W/m2
16:34 78.7 °F 66.8 °F 30.05 in Calm     67% 0.00 in 130 W/m2
16:39 78.8 °F 67.6 °F 30.06 in Calm     68.5% 0.00 in 120 W/m2
16:44 78.8 °F 67.2 °F 30.06 in Calm     67.5% 0.00 in 97 W/m2
16:49 78.8 °F 67.4 °F 30.06 in Calm     68.1% 0.00 in 84 W/m2
16:54 78.7 °F 66.8 °F 30.05 in Calm     67% 0.00 in 102 W/m2
16:59 78.7 °F 66.6 °F 30.05 in Calm     66.6% 0.00 in 127 W/m2
17:04 78.6 °F 66.3 °F 30.05 in Calm     66% 0.00 in 148 W/m2
17:09 78.6 °F 65.5 °F 30.06 in Calm     64.1% 0.00 in 176 W/m2
17:14 78.7 °F 65.3 °F 30.06 in Calm     63.7% 0.00 in 176 W/m2
17:19 78.7 °F 65.1 °F 30.06 in Calm     63% 0.00 in 156 W/m2
17:24 78.8 °F 66.3 °F 30.06 in Calm     65.7% 0.00 in 146 W/m2
17:29 78.9 °F 66.4 °F 30.06 in Calm     65.5% 0.00 in 130 W/m2
17:32 79 °F 66.8 °F 30.06 in Calm     66.3% 0.00 in 130 W/m2
18:00 79.2 °F 66 °F 30.05 in Calm     64% 0.00 in 109 W/m2
18:30 79.3 °F 67.8 °F 30.06 in Calm     68% 0.00 in 84 W/m2
19:00 78.9 °F 67 °F 30.06 in Calm   2 mph 67% 0.00 in 47 W/m2
19:30 78.2 °F 66.8 °F 30.06 in Calm     68% 0.00 in 29 W/m2
20:04 77.5 °F 66.9 °F 30.06 in Calm     69.9% 0.00 in 0 W/m2
20:09 77.4 °F 66.4 °F 30.06 in Calm     69% 0.00 in 0 W/m2
20:14 77.3 °F 66.8 °F 30.06 in Calm     70% 0.00 in 0 W/m2
20:19 77.2 °F 66.9 °F 30.06 in Calm     70.5% 0.00 in 0 W/m2
20:24 77.1 °F 67 °F 30.06 in Calm     71% 0.00 in 0 W/m2
20:29 77.1 °F 66.7 °F 30.06 in Calm     70.4% 0.00 in 0 W/m2
20:34 76.9 °F 66.4 °F 30.07 in Calm     70% 0.00 in 0 W/m2
20:39 76.9 °F 66.7 °F 30.07 in Calm     70.8% 0.00 in 0 W/m2
20:43 76.8 °F 66.7 °F 30.07 in Calm     71.1% 0.00 in 0 W/m2
20:49 76.7 °F 67.1 °F 30.07 in Calm     72.3% 0.00 in 0 W/m2
20:54 76.6 °F 67.3 °F 30.07 in Calm     73% 0.00 in 0 W/m2
20:59 76.5 °F 67.4 °F 30.07 in Calm     73.4% 0.00 in 0 W/m2
21:04 76.4 °F 67.5 °F 30.07 in Calm     74% 0.00 in 0 W/m2
21:09 76.3 °F 67.5 °F 30.07 in Calm     74.2% 0.00 in 0 W/m2
21:14 76.2 °F 67.7 °F 30.07 in Calm     75% 0.00 in 0 W/m2
21:19 76.2 °F 67.9 °F 30.08 in Calm     75.5% 0.00 in 0 W/m2
21:24 76.1 °F 68 °F 30.08 in Calm     76% 0.00 in 0 W/m2
21:29 76 °F 67.9 °F 30.08 in Calm     76% 0.00 in 0 W/m2
21:34 75.9 °F 67.8 °F 30.08 in Calm     76% 0.00 in 0 W/m2
21:39 75.8 °F 67.7 °F 30.08 in Calm     76% 0.00 in 0 W/m2
21:44 75.7 °F 67.6 °F 30.08 in Calm     76% 0.00 in 0 W/m2
21:49 75.6 °F 67.8 °F 30.08 in Calm     76.7% 0.00 in 0 W/m2
21:54 75.6 °F 67.9 °F 30.08 in Calm     77% 0.00 in 0 W/m2
21:59 75.5 °F 67.8 °F 30.08 in Calm     77% 0.00 in 0 W/m2
22:04 75.4 °F 67.7 °F 30.07 in Calm     77% 0.00 in 0 W/m2
22:09 75.3 °F 67.6 °F 30.07 in Calm     77% 0.00 in 0 W/m2
22:14 75.3 °F 67.6 °F 30.07 in Calm     77% 0.00 in 0 W/m2
22:19 75.2 °F 67.8 °F 30.07 in Calm     77.7% 0.00 in 0 W/m2
22:24 75.1 °F 67.9 °F 30.07 in Calm     78.2% 0.00 in 0 W/m2
22:29 75.1 °F 68.1 °F 30.07 in Calm     79% 0.00 in 0 W/m2
22:34 75 °F 68 °F 30.07 in Calm     79% 0.00 in 0 W/m2
22:39 74.9 °F 68 °F 30.07 in Calm     79.3% 0.00 in 0 W/m2
22:44 74.7 °F 68.2 °F 30.07 in Calm     80% 0.00 in 0 W/m2
22:49 74.6 °F 68 °F 30.07 in Calm     80% 0.00 in 0 W/m2
22:54 74.4 °F 68 °F 30.07 in Calm     80.4% 0.00 in 0 W/m2
22:59 74.3 °F 68.1 °F 30.07 in Calm     81% 0.00 in 0 W/m2
23:04 74.2 °F 68 °F 30.07 in Calm     81% 0.00 in 0 W/m2
23:09 74.1 °F 68 °F 30.07 in Calm     81.4% 0.00 in 0 W/m2
23:14 74 °F 68.1 °F 30.07 in Calm     82% 0.00 in 0 W/m2
23:19 73.9 °F 67.9 °F 30.07 in Calm     81.7% 0.00 in 0 W/m2
23:24 73.8 °F 68 °F 30.07 in Calm     82% 0.00 in 0 W/m2
23:29 73.7 °F 67.9 °F 30.07 in Calm     82% 0.00 in 0 W/m2
23:34 73.7 °F 68.2 °F 30.07 in Calm     82.8% 0.00 in 0 W/m2
23:39 73.6 °F 68.1 °F 30.07 in Calm     83% 0.00 in 0 W/m2
23:44 73.6 °F 68.1 °F 30.07 in Calm     83% 0.00 in 0 W/m2
23:49 73.5 °F 68 °F 30.07 in Calm     83% 0.00 in 0 W/m2
23:54 73.5 °F 68.3 °F 30.07 in Calm     83.7% 0.00 in 0 W/m2
23:59 73.5 °F 68.4 °F 30.07 in Calm     84% 0.00 in 0 W/m2
Hartford County Weather
Compliments of Weather Underground - 2 mb